Time;durP1;ratioP1;P1;durP2;ratioP2;P2;SDS_P1;SDS_P2;PMS_P1;PMS_P2;Temp;Humidity;BMP_temperature;BMP_pressure;BME280_temperature;BME280_humidity;BME280_pressure;Samples;Min_cycle;Max_cycle;Signal;HPM_P1;HPM_P2
2021/12/03 00:00:27;;;;;;;10.45;5.35;;;;;;;-1.52;85.11;95903.06;5001262;28;20068;-73
2021/12/03 00:02:54;;;;;;;8.57;4.20;;;;;;;-1.54;85.19;95902.44;5001714;28;20061;-70
2021/12/03 00:05:20;;;;;;;12.77;5.43;;;;;;;-1.58;85.08;95903.81;4998573;28;20064;-71
2021/12/03 00:07:45;;;;;;;10.43;5.88;;;;;;;-1.63;86.14;95907.97;5000495;28;20480;-70
2021/12/03 00:10:14;;;;;;;9.85;5.32;;;;;;;-1.58;85.74;95906.44;5000460;28;20051;-70
2021/12/03 00:12:40;;;;;;;10.68;5.50;;;;;;;-1.53;85.14;95909.31;4998626;28;20589;-70
2021/12/03 00:15:08;;;;;;;8.75;4.75;;;;;;;-1.55;86.12;95908.69;5000124;28;20058;-71
2021/12/03 00:17:34;;;;;;;11.77;5.07;;;;;;;-1.55;85.66;95908.69;4999198;28;20123;-71
2021/12/03 00:20:00;;;;;;;11.75;5.40;;;;;;;-1.54;85.29;95912.94;5000188;28;20117;-74
2021/12/03 00:22:25;;;;;;;9.57;5.30;;;;;;;-1.55;85.80;95919.19;5001824;28;20041;-70
2021/12/03 00:24:51;;;;;;;14.23;5.85;;;;;;;-1.56;86.03;95916.72;5001650;28;20437;-73
2021/12/03 00:27:17;;;;;;;13.93;5.85;;;;;;;-1.56;86.28;95927.22;5004152;28;20477;-71
2021/12/03 00:29:43;;;;;;;11.55;5.57;;;;;;;-1.52;86.28;95929.31;5001079;28;20381;-70
2021/12/03 00:32:09;;;;;;;16.30;6.03;;;;;;;-1.55;85.19;95916.56;5001289;28;20111;-71
2021/12/03 00:34:34;;;;;;;19.45;6.55;;;;;;;-1.44;85.55;95920.50;4999101;28;20432;-70
2021/12/03 00:37:00;;;;;;;12.38;5.57;;;;;;;-1.42;85.55;95923.75;5000680;28;20043;-70
2021/12/03 00:39:26;;;;;;;12.43;6.50;;;;;;;-1.44;86.10;95920.50;4987572;28;20116;-70
2021/12/03 00:41:58;;;;;;;15.02;6.57;;;;;;;-1.53;85.83;95917.19;5001549;28;20064;-70
2021/12/03 00:44:28;;;;;;;11.90;6.43;;;;;;;-1.66;86.30;95922.28;5000977;28;20041;-71
2021/12/03 00:46:54;;;;;;;12.10;6.38;;;;;;;-1.69;85.11;95926.09;5011041;28;20034;-72
2021/12/03 00:49:20;;;;;;;10.88;5.30;;;;;;;-1.62;85.32;95928.00;5006951;28;20104;-70
2021/12/03 00:51:45;;;;;;;14.65;5.28;;;;;;;-1.71;85.52;95919.44;5004502;28;20389;-71
2021/12/03 00:54:13;;;;;;;14.18;7.10;;;;;;;-1.65;85.16;95923.09;5000032;28;20133;-71
2021/12/03 00:56:39;;;;;;;12.77;6.95;;;;;;;-1.67;85.66;95922.47;5000329;28;20073;-70
2021/12/03 00:59:04;;;;;;;16.52;7.97;;;;;;;-1.67;85.51;95923.28;4998504;28;20052;-71
2021/12/03 01:01:30;;;;;;;16.45;8.15;;;;;;;-1.70;85.98;95905.31;4999250;28;20046;-71
2021/12/03 01:03:55;;;;;;;18.20;8.88;;;;;;;-1.69;86.56;95917.41;4999868;28;20057;-74
2021/12/03 01:06:21;;;;;;;17.35;9.50;;;;;;;-1.62;86.25;95918.31;5001797;28;20469;-72
2021/12/03 01:08:47;;;;;;;16.20;8.65;;;;;;;-1.55;85.34;95923.63;4999300;28;20045;-72
2021/12/03 01:11:13;;;;;;;21.13;9.20;;;;;;;-1.54;85.83;95930.50;4998301;28;20041;-71
2021/12/03 01:13:41;;;;;;;27.35;10.77;;;;;;;-1.59;86.28;95924.97;4999949;28;20480;-71
2021/12/03 01:16:09;;;;;;;17.30;8.95;;;;;;;-1.55;85.54;95929.69;4998503;28;20050;-71
2021/12/03 01:18:36;;;;;;;28.45;9.80;;;;;;;-1.51;85.65;95930.13;4997517;28;20034;-74
2021/12/03 01:21:02;;;;;;;23.33;10.68;;;;;;;-1.54;85.73;95923.44;4998996;28;20066;-72
2021/12/03 01:23:28;;;;;;;20.75;9.30;;;;;;;-1.56;85.61;95928.03;4998203;28;20030;-72
2021/12/03 01:25:54;;;;;;;17.65;9.27;;;;;;;-1.63;85.96;95932.44;4997720;28;20045;-73
2021/12/03 01:28:20;;;;;;;23.88;10.13;;;;;;;-1.66;85.96;95932.78;4999182;28;20038;-71
2021/12/03 01:30:45;;;;;;;20.98;10.20;;;;;;;-1.64;85.76;95924.72;4998804;28;20053;-70
2021/12/03 01:33:11;;;;;;;21.92;10.20;;;;;;;-1.57;86.31;95931.66;4997895;28;20072;-72
2021/12/03 01:35:38;;;;;;;19.23;10.02;;;;;;;-1.51;85.30;95941.44;5000213;28;20100;-70
2021/12/03 01:38:05;;;;;;;21.13;9.82;;;;;;;-1.46;85.28;95946.94;4999113;28;20041;-72
2021/12/03 01:40:33;;;;;;;21.92;8.85;;;;;;;-1.42;85.31;95953.44;5005105;28;20041;-72
2021/12/03 01:42:59;;;;;;;18.00;9.27;;;;;;;-1.41;85.06;95944.56;4999481;28;20463;-71
2021/12/03 01:45:29;;;;;;;20.90;9.43;;;;;;;-1.37;85.17;95959.94;4999609;28;20034;-73
2021/12/03 01:47:56;;;;;;;17.80;8.90;;;;;;;-1.36;85.55;95958.94;4998128;28;20576;-70
2021/12/03 01:50:29;;;;;;;24.75;9.93;;;;;;;-1.35;84.73;95958.75;5001453;28;20659;-70
2021/12/03 01:52:55;;;;;;;21.67;10.23;;;;;;;-1.27;84.82;95960.44;4996423;28;20086;-71
2021/12/03 01:55:21;;;;;;;23.98;10.27;;;;;;;-1.26;84.92;95964.69;4999605;28;20606;-72
2021/12/03 01:57:47;;;;;;;25.13;11.52;;;;;;;-1.25;85.11;95964.50;5012711;28;20468;-71
2021/12/03 02:00:38;;;;;;;22.52;11.02;;;;;;;-1.17;85.09;95966.19;4997404;28;20046;-70
2021/12/03 02:03:07;;;;;;;22.55;10.80;;;;;;;-1.17;85.03;95959.16;4997794;28;20215;-72
2021/12/03 02:05:33;;;;;;;21.80;10.35;;;;;;;-1.11;84.94;95965.44;4999162;28;20680;-71
2021/12/03 02:07:59;;;;;;;24.60;10.27;;;;;;;-1.11;85.33;95957.56;4997103;28;20041;-72
2021/12/03 02:10:24;;;;;;;24.73;12.05;;;;;;;-1.10;85.35;95971.50;5000339;28;20385;-74
2021/12/03 02:12:51;;;;;;;27.25;11.15;;;;;;;-1.07;85.42;95968.53;4997254;28;20495;-71
2021/12/03 02:15:17;;;;;;;24.42;11.40;;;;;;;-1.06;85.06;95975.41;4998413;28;20417;-70
2021/12/03 02:17:45;;;;;;;22.95;9.80;;;;;;;-1.13;85.98;95970.91;5015180;28;20030;-71
2021/12/03 02:20:13;;;;;;;22.67;10.50;;;;;;;-1.04;85.86;95968.16;4999107;28;20527;-71
2021/12/03 02:22:40;;;;;;;23.40;10.82;;;;;;;-1.03;86.26;95973.19;4996275;28;20110;-73
2021/12/03 02:25:10;;;;;;;25.42;10.63;;;;;;;-1.03;85.81;95975.84;4997940;28;20039;-70
2021/12/03 02:27:35;;;;;;;24.98;10.90;;;;;;;-0.98;86.19;95973.47;4998964;28;20030;-72
2021/12/03 02:30:03;;;;;;;25.98;9.98;;;;;;;-0.90;85.87;95975.16;4996538;28;20041;-72
2021/12/03 02:32:28;;;;;;;27.42;11.90;;;;;;;-0.84;85.17;95977.03;4996419;28;20042;-74
2021/12/03 02:34:54;;;;;;;28.88;11.50;;;;;;;-0.80;85.32;95977.44;4997707;28;20119;-70
2021/12/03 02:37:19;;;;;;;29.30;11.18;;;;;;;-0.79;85.20;95984.31;4997940;28;20038;-71
2021/12/03 02:39:45;;;;;;;26.27;12.27;;;;;;;-0.76;85.79;95986.59;4996792;28;20397;-72
2021/12/03 02:42:11;;;;;;;25.70;10.93;;;;;;;-0.77;85.45;95993.66;4998203;28;20058;-73
2021/12/03 02:44:36;;;;;;;18.73;9.45;;;;;;;-0.81;85.71;95989.78;4998288;28;20413;-71
2021/12/03 02:47:03;;;;;;;21.15;10.10;;;;;;;-0.79;86.68;95997.47;4998645;28;20459;-74
2021/12/03 02:49:29;;;;;;;19.10;9.35;;;;;;;-0.78;86.21;95996.47;4997694;28;20041;-71
2021/12/03 02:51:55;;;;;;;20.45;10.40;;;;;;;-0.77;86.63;95991.03;4996894;28;20110;-71
2021/12/03 02:54:20;;;;;;;26.95;8.95;;;;;;;-0.75;86.54;95989.03;4996229;28;20049;-74
2021/12/03 02:56:46;;;;;;;21.75;10.18;;;;;;;-0.83;86.72;95985.72;4995859;28;20038;-71
2021/12/03 02:59:12;;;;;;;22.58;10.05;;;;;;;-0.82;86.90;95976.84;5000129;28;20129;-71
2021/12/03 03:01:37;;;;;;;14.40;7.20;;;;;;;-0.91;86.93;95976.16;4998293;28;20392;-72
2021/12/03 03:04:03;;;;;;;16.33;8.20;;;;;;;-0.93;86.72;95980.78;5003593;28;20115;-71
2021/12/03 03:06:29;;;;;;;19.30;9.48;;;;;;;-0.89;86.96;95976.78;5004610;28;20096;-71
2021/12/03 03:08:55;;;;;;;16.63;8.50;;;;;;;-0.90;87.34;95988.28;5000932;28;20033;-72
2021/12/03 03:11:22;;;;;;;23.83;9.45;;;;;;;-0.83;86.93;95964.72;5003523;28;20056;-71
2021/12/03 03:13:48;;;;;;;19.63;8.82;;;;;;;-0.80;86.38;95969.56;5003219;28;20084;-71
2021/12/03 03:16:15;;;;;;;13.43;5.97;;;;;;;-0.80;86.89;95969.56;5005133;28;20046;-71
2021/12/03 03:18:41;;;;;;;18.42;6.55;;;;;;;-0.81;86.37;95957.44;5001852;28;20042;-73
2021/12/03 03:21:07;;;;;;;16.95;7.35;;;;;;;-0.87;86.66;95969.50;5005134;28;20085;-70
2021/12/03 03:23:33;;;;;;;9.73;4.85;;;;;;;-0.87;85.52;95966.88;5003040;28;20034;-71
2021/12/03 03:25:59;;;;;;;15.68;6.07;;;;;;;-0.86;85.39;95968.50;5002468;28;20038;-72
2021/12/03 03:28:25;;;;;;;13.48;5.55;;;;;;;-0.85;85.39;95970.97;5005117;28;20423;-71
2021/12/03 03:30:54;;;;;;;16.02;6.15;;;;;;;-0.84;85.36;95977.03;5003710;28;20499;-72
2021/12/03 03:33:20;;;;;;;12.70;5.13;;;;;;;-0.88;85.98;95979.22;5004035;28;20148;-70
2021/12/03 03:35:46;;;;;;;15.75;4.85;;;;;;;-0.88;85.93;95984.47;5004716;28;20042;-72
2021/12/03 03:38:13;;;;;;;15.50;6.10;;;;;;;-0.83;85.92;95990.97;5003433;28;20096;-71
2021/12/03 03:40:40;;;;;;;11.00;5.35;;;;;;;-0.84;85.90;95992.78;5006450;28;20038;-71
2021/12/03 03:43:06;;;;;;;11.77;5.55;;;;;;;-0.83;85.64;95994.41;5003330;28;20505;-72
2021/12/03 03:45:33;;;;;;;10.77;5.63;;;;;;;-0.80;86.20;95995.84;5006578;28;20068;-72
2021/12/03 03:48:00;;;;;;;11.18;5.93;;;;;;;-0.75;85.87;96001.34;5002813;28;20523;-73
2021/12/03 03:50:26;;;;;;;21.55;7.05;;;;;;;-0.74;85.91;96005.59;5003532;28;20038;-71
2021/12/03 03:52:53;;;;;;;13.48;6.03;;;;;;;-0.75;85.99;96002.16;5004879;28;20452;-70
2021/12/03 03:55:21;;;;;;;11.32;5.63;;;;;;;-0.80;86.45;95998.47;5002055;28;20140;-70
2021/12/03 03:57:48;;;;;;;15.38;6.60;;;;;;;-0.77;86.07;96014.69;5003567;28;20045;-70
2021/12/03 04:00:22;;;;;;;13.38;5.55;;;;;;;-0.81;86.17;96013.44;5002095;28;20045;-73
2021/12/03 04:02:48;;;;;;;12.00;5.68;;;;;;;-0.91;87.13;96010.31;5003353;28;20054;-74
2021/12/03 04:05:14;;;;;;;14.73;5.93;;;;;;;-1.01;87.05;95994.03;5002187;28;20049;-70
2021/12/03 04:07:40;;;;;;;15.30;4.88;;;;;;;-0.96;86.90;95992.47;5005116;28;20120;-71
2021/12/03 04:10:07;;;;;;;13.13;5.55;;;;;;;-0.88;86.95;96004.66;5003723;28;20153;-73
2021/12/03 04:12:34;;;;;;;11.77;4.65;;;;;;;-0.86;86.59;95990.38;5004523;28;20122;-71
2021/12/03 04:14:59;;;;;;;12.38;4.60;;;;;;;-0.87;86.11;95991.34;5003270;28;20092;-71
2021/12/03 04:17:25;;;;;;;10.55;5.28;;;;;;;-0.83;86.41;96001.50;5001857;28;20044;-72
2021/12/03 04:19:50;;;;;;;18.63;5.47;;;;;;;-0.85;86.83;95989.34;4999417;28;20403;-70
2021/12/03 04:22:18;;;;;;;15.50;6.40;;;;;;;-0.81;87.46;95989.78;5004960;28;20088;-70
2021/12/03 04:24:44;;;;;;;17.50;6.32;;;;;;;-0.81;86.35;95987.16;5001246;28;20113;-71
2021/12/03 04:27:10;;;;;;;19.42;6.97;;;;;;;-0.83;87.36;95991.78;5000505;28;20049;-74
2021/12/03 04:29:35;;;;;;;22.63;7.82;;;;;;;-0.92;86.86;95985.84;4998273;28;20034;-70
2021/12/03 04:32:01;;;;;;;15.95;7.70;;;;;;;-0.93;87.25;95992.13;5004523;28;20042;-72
2021/12/03 04:34:27;;;;;;;20.42;7.95;;;;;;;-1.04;88.07;95989.97;5000071;28;20113;-70
2021/12/03 04:36:52;;;;;;;18.08;9.07;;;;;;;-1.15;88.89;95999.16;4998125;28;20030;-71
2021/12/03 04:39:18;;;;;;;21.20;8.75;;;;;;;-1.28;88.86;95988.50;5001867;28;20034;-71
2021/12/03 04:41:43;;;;;;;20.48;9.10;;;;;;;-1.36;89.25;95977.31;5000129;28;20046;-73
2021/12/03 04:44:09;;;;;;;18.42;9.10;;;;;;;-1.33;90.11;95988.25;4998991;28;20461;-72
2021/12/03 04:46:37;;;;;;;14.73;7.28;;;;;;;-1.55;89.29;95981.38;5001488;28;20322;-71
2021/12/03 04:49:02;;;;;;;17.67;8.63;;;;;;;-1.54;89.99;95988.22;5000100;28;20073;-71
2021/12/03 04:51:28;;;;;;;16.63;8.18;;;;;;;-1.61;90.98;95984.72;4999432;28;20678;-71
2021/12/03 04:53:53;;;;;;;22.20;9.05;;;;;;;-1.65;90.43;95989.50;5031598;28;20549;-71
2021/12/03 04:56:19;;;;;;;22.52;8.20;;;;;;;-1.70;90.62;95989.25;5003153;28;20500;-72
2021/12/03 04:58:44;;;;;;;35.97;8.18;;;;;;;-1.61;90.90;95990.78;5002823;28;20121;-72
2021/12/03 05:01:10;;;;;;;18.00;7.38;;;;;;;-1.71;90.14;95977.94;5001299;28;20482;-71
2021/12/03 05:03:37;;;;;;;16.23;6.90;;;;;;;-1.74;90.71;95980.13;5000612;28;20494;-71
2021/12/03 05:06:04;;;;;;;15.60;7.82;;;;;;;-1.81;90.46;95974.78;4999663;28;20034;-71
2021/12/03 05:08:30;;;;;;;12.60;6.57;;;;;;;-1.80;90.66;95978.22;5002213;28;20117;-71
2021/12/03 05:10:57;;;;;;;6.63;3.17;;;;;;;-1.85;90.49;95980.59;5001329;28;20037;-71
2021/12/03 05:13:32;;;;;;;11.55;6.05;;;;;;;-1.87;90.48;95982.56;5031278;28;20034;-71
2021/12/03 05:15:59;;;;;;;11.30;5.65;;;;;;;-1.91;90.51;95974.25;4998482;28;20121;-71
2021/12/03 05:18:27;;;;;;;11.88;6.05;;;;;;;-1.95;90.98;95970.34;4997782;28;21071;-70
2021/12/03 05:20:55;;;;;;;13.27;5.38;;;;;;;-1.96;90.50;95972.16;4999393;28;20041;-70
2021/12/03 05:23:22;;;;;;;15.68;6.35;;;;;;;-1.89;90.75;95974.88;5002063;28;20096;-71
2021/12/03 05:25:48;;;;;;;20.60;7.85;;;;;;;-2.06;91.09;95974.25;4998727;28;20482;-71
2021/12/03 05:28:15;;;;;;;18.60;6.97;;;;;;;-2.04;90.58;95974.88;4998167;28;20045;-71
2021/12/03 05:30:41;;;;;;;13.27;6.60;;;;;;;-1.96;91.02;95964.31;4997997;28;20053;-70
2021/12/03 05:33:08;;;;;;;15.15;6.63;;;;;;;-2.04;90.67;95972.25;4998911;28;20038;-70
2021/12/03 05:35:34;;;;;;;8.52;4.22;;;;;;;-2.09;90.90;95981.69;5000023;28;20037;-71
2021/12/03 05:38:00;;;;;;;14.45;5.38;;;;;;;-2.09;91.15;95979.06;4998102;28;20125;-71
2021/12/03 05:40:25;;;;;;;11.82;4.88;;;;;;;-2.08;90.91;95986.75;4999507;28;20957;-70
2021/12/03 05:42:51;;;;;;;13.38;6.05;;;;;;;-2.07;91.44;95983.13;4998556;28;20058;-71
2021/12/03 05:45:23;;;;;;;6.75;3.60;;;;;;;-2.09;91.36;95995.63;5001194;28;20113;-70
2021/12/03 05:47:49;;;;;;;15.80;7.43;;;;;;;-2.01;91.50;95986.84;4998535;28;20041;-71
2021/12/03 05:50:16;;;;;;;11.02;5.47;;;;;;;-2.07;90.96;95988.38;4998706;28;20041;-70
2021/12/03 05:52:41;;;;;;;15.43;5.65;;;;;;;-2.07;90.83;95993.63;4996378;28;20041;-71
2021/12/03 05:55:08;;;;;;;13.60;6.47;;;;;;;-2.08;91.54;95993.81;5011625;28;20042;-72
2021/12/03 05:57:35;;;;;;;13.55;5.28;;;;;;;-2.07;90.75;96004.09;4999969;28;20042;-73
2021/12/03 06:00:01;;;;;;;11.98;5.10;;;;;;;-2.11;91.05;96002.81;4999059;28;20030;-70
2021/12/03 06:02:27;;;;;;;15.90;5.88;;;;;;;-2.12;91.44;95995.94;4999222;28;20042;-71
2021/12/03 06:04:53;;;;;;;11.95;5.55;;;;;;;-2.22;91.62;96000.66;4997728;28;20095;-74
2021/12/03 06:07:18;;;;;;;11.73;5.03;;;;;;;-2.33;92.00;95998.50;5000532;28;20045;-73
2021/12/03 06:09:45;;;;;;;13.85;6.53;;;;;;;-2.40;92.08;95997.56;4998522;28;20049;-70
2021/12/03 06:12:11;;;;;;;15.63;6.45;;;;;;;-2.54;93.19;95997.38;4998503;28;20043;-73
2021/12/03 06:14:36;;;;;;;16.23;7.35;;;;;;;-2.60;92.82;96003.31;4998019;28;20046;-72
2021/12/03 06:17:02;;;;;;;13.13;5.22;;;;;;;-2.59;92.85;96004.13;4997316;28;20041;-70
2021/12/03 06:19:27;;;;;;;14.45;6.10;;;;;;;-2.55;93.33;96006.22;4999567;28;20118;-71
2021/12/03 06:21:53;;;;;;;7.93;3.55;;;;;;;-2.50;93.39;96004.84;4998163;28;20088;-70
2021/12/03 06:24:19;;;;;;;14.07;6.15;;;;;;;-2.45;93.28;96010.41;5001913;28;20449;-71
2021/12/03 06:26:44;;;;;;;14.40;6.20;;;;;;;-2.40;93.27;96029.03;4998819;28;20113;-70
2021/12/03 06:29:10;;;;;;;14.20;5.82;;;;;;;-2.32;92.68;96018.47;4997467;28;20065;-71
2021/12/03 06:31:36;;;;;;;14.15;7.00;;;;;;;-2.22;92.17;96016.38;4998402;28;20129;-74
2021/12/03 06:34:02;;;;;;;14.75;6.15;;;;;;;-2.25;92.17;96004.47;4997662;28;20053;-71
2021/12/03 06:36:27;;;;;;;14.90;6.45;;;;;;;-2.17;92.09;96014.06;4997582;28;20489;-70
2021/12/03 06:38:53;;;;;;;13.25;6.63;;;;;;;-2.14;92.01;96013.69;5000588;28;20109;-72
2021/12/03 06:41:18;;;;;;;12.80;5.88;;;;;;;-2.14;91.87;96023.34;5000523;28;20077;-71
2021/12/03 06:43:44;;;;;;;14.18;6.07;;;;;;;-2.07;91.45;96019.84;4998159;28;20069;-71
2021/12/03 06:46:09;;;;;;;11.35;4.93;;;;;;;-2.07;92.10;96019.84;4997111;28;20054;-71
2021/12/03 06:48:35;;;;;;;17.80;7.35;;;;;;;-2.05;91.53;96028.31;4996985;28;20034;-72
2021/12/03 06:51:02;;;;;;;17.60;7.75;;;;;;;-1.99;91.81;96032.03;4997210;28;20064;-73
2021/12/03 06:53:31;;;;;;;16.20;7.25;;;;;;;-1.95;91.25;96020.19;5000027;28;20046;-75
2021/12/03 06:56:04;;;;;;;16.05;6.25;;;;;;;-1.98;91.74;96024.00;4998015;28;20067;-72
2021/12/03 06:58:29;;;;;;;18.48;6.57;;;;;;;-2.02;91.58;96025.38;4996856;28;20042;-71
2021/12/03 07:00:56;;;;;;;11.23;4.60;;;;;;;-2.05;91.69;96017.03;4996448;28;20374;-72
2021/12/03 07:03:22;;;;;;;16.58;7.63;;;;;;;-1.95;91.92;96014.94;4996943;28;20057;-74
2021/12/03 07:05:48;;;;;;;24.80;6.43;;;;;;;-1.98;92.36;96016.13;4994670;28;20408;-73
2021/12/03 07:08:14;;;;;;;8.40;4.13;;;;;;;-2.03;91.43;96015.03;4996034;28;20514;-71
2021/12/03 07:10:39;;;;;;;13.00;5.47;;;;;;;-2.04;92.17;96027.31;4999601;28;20045;-70
2021/12/03 07:13:06;;;;;;;13.10;6.15;;;;;;;-2.04;92.21;96027.31;4996977;28;20122;-70
2021/12/03 07:15:33;;;;;;;9.27;4.68;;;;;;;-1.99;92.19;96035.47;4997304;28;20038;-69
2021/12/03 07:17:58;;;;;;;10.77;4.47;;;;;;;-1.94;92.19;96018.41;4998211;28;20041;-71
2021/12/03 07:20:27;;;;;;;16.08;6.10;;;;;;;-1.90;91.93;96030.16;4995844;28;20042;-70
2021/12/03 07:22:55;;;;;;;16.02;6.22;;;;;;;-1.89;91.64;96027.34;4997528;28;20120;-70
2021/12/03 07:25:21;;;;;;;13.55;4.65;;;;;;;-1.90;92.53;96025.72;4998474;28;20264;-70
2021/12/03 07:27:47;;;;;;;14.55;6.10;;;;;;;-1.89;91.88;96016.03;5000016;28;20069;-72
2021/12/03 07:30:15;;;;;;;15.48;6.68;;;;;;;-1.82;92.75;96030.06;4997468;28;20068;-70
2021/12/03 07:32:40;;;;;;;14.15;5.95;;;;;;;-1.79;92.13;96021.81;4997078;28;20038;-70
2021/12/03 07:35:08;;;;;;;20.38;6.53;;;;;;;-1.84;91.91;96016.31;4997404;28;20107;-70
2021/12/03 07:37:34;;;;;;;18.42;6.68;;;;;;;-1.79;92.18;96016.56;4999753;28;20145;-70
2021/12/03 07:40:06;;;;;;;13.10;5.22;;;;;;;-1.76;92.00;96021.47;4997020;28;20448;-70
2021/12/03 07:42:33;;;;;;;16.20;7.28;;;;;;;-1.70;91.95;96026.00;4996819;28;20058;-71
2021/12/03 07:44:59;;;;;;;19.08;8.02;;;;;;;-1.61;92.57;96022.25;4998880;28;20042;-69
2021/12/03 07:47:25;;;;;;;11.63;4.38;;;;;;;-1.63;91.87;96026.88;4995307;28;20053;-70
2021/12/03 07:49:51;;;;;;;12.65;5.40;;;;;;;-1.48;91.31;96039.97;4999338;28;20037;-70
2021/12/03 07:52:19;;;;;;;17.38;6.47;;;;;;;-1.55;92.00;96037.28;4999664;28;20038;-71
2021/12/03 07:54:45;;;;;;;17.42;7.85;;;;;;;-1.54;91.58;96036.28;5003873;28;20034;-70
2021/12/03 07:57:11;;;;;;;22.38;11.60;;;;;;;-1.47;91.95;96047.69;5000441;28;20049;-72
2021/12/03 07:59:36;;;;;;;17.25;6.20;;;;;;;-1.47;91.20;96031.94;5001826;28;20041;-71
2021/12/03 08:02:02;;;;;;;16.10;5.85;;;;;;;-1.46;91.96;96038.81;5001343;28;20151;-72
2021/12/03 08:04:28;;;;;;;14.13;6.45;;;;;;;-1.40;91.62;96034.63;5001678;28;20042;-70
2021/12/03 08:06:54;;;;;;;19.77;6.40;;;;;;;-1.25;91.37;96050.34;5001208;28;20049;-72
2021/12/03 08:09:21;;;;;;;10.98;4.63;;;;;;;-1.12;91.14;96047.88;5002217;28;20038;-73
2021/12/03 08:11:46;;;;;;;13.20;6.05;;;;;;;-1.21;90.41;96048.97;5003582;28;20038;-70
2021/12/03 08:14:12;;;;;;;10.93;4.30;;;;;;;-1.19;90.11;96044.34;5004234;28;20057;-72
2021/12/03 08:16:38;;;;;;;8.05;4.72;;;;;;;-1.27;90.45;96045.28;5001512;28;20042;-70
2021/12/03 08:19:05;;;;;;;9.95;4.47;;;;;;;-1.13;91.50;96048.88;4999860;28;20133;-72
2021/12/03 08:21:30;;;;;;;11.82;5.00;;;;;;;-1.23;90.19;96054.41;5000136;28;20035;-74
2021/12/03 08:23:57;;;;;;;9.35;4.28;;;;;;;-1.22;90.16;96045.53;5001437;28;20740;-73
2021/12/03 08:26:22;;;;;;;15.00;5.43;;;;;;;-1.13;90.04;96038.38;5000235;28;20042;-70
2021/12/03 08:28:48;;;;;;;17.27;5.03;;;;;;;-1.21;90.94;96034.03;5001703;28;20559;-70
2021/12/03 08:31:16;;;;;;;16.25;5.28;;;;;;;-1.13;90.25;96046.25;5001146;28;20057;-73
2021/12/03 08:33:43;;;;;;;18.30;6.57;;;;;;;-0.98;89.82;96057.53;5001153;28;20243;-73
2021/12/03 08:36:11;;;;;;;16.27;6.75;;;;;;;-1.00;89.51;96042.94;5001128;28;20126;-70
2021/12/03 08:38:37;;;;;;;15.32;5.95;;;;;;;-0.94;89.29;96026.41;5001542;28;20034;-70
2021/12/03 08:41:04;;;;;;;20.17;4.78;;;;;;;-1.01;89.07;96033.41;5001299;28;20058;-73
2021/12/03 08:43:30;;;;;;;11.68;4.78;;;;;;;-1.00;89.30;96028.00;4998983;28;20382;-73
2021/12/03 08:45:56;;;;;;;13.20;5.25;;;;;;;-0.98;88.29;96033.06;4998624;28;20045;-73
2021/12/03 08:48:23;;;;;;;15.07;4.85;;;;;;;-0.95;88.59;96032.69;5003035;28;20123;-70
2021/12/03 08:51:09;;;;;;;9.32;4.25;;;;;;;-1.06;88.61;96033.19;5002983;28;20116;-72
2021/12/03 08:56:19;;;;;;;31.85;8.07;;;;;;;-1.03;88.53;96033.63;4999999;28;20053;-73
2021/12/03 08:58:44;;;;;;;18.38;3.92;;;;;;;-0.96;87.73;96031.06;5001217;28;20064;-71
2021/12/03 09:01:12;;;;;;;11.63;4.30;;;;;;;-0.89;87.79;96040.63;4999536;28;20494;-71
2021/12/03 09:03:38;;;;;;;10.95;3.67;;;;;;;-0.54;86.74;96056.53;5001773;28;20038;-71
2021/12/03 09:06:03;;;;;;;11.23;4.50;;;;;;;-0.44;85.55;96045.69;4999845;28;20421;-70
2021/12/03 09:08:29;;;;;;;10.20;4.75;;;;;;;-0.35;84.97;96053.25;5003171;28;20048;-74
2021/12/03 09:10:55;;;;;;;8.80;4.60;;;;;;;-0.34;84.55;96054.88;5002896;28;20042;-72
2021/12/03 09:13:20;;;;;;;4.45;2.28;;;;;;;-0.42;84.76;96049.75;5002900;28;20125;-73
2021/12/03 09:16:06;;;;;;;13.60;4.90;;;;;;;-0.39;85.10;96040.66;5002910;28;20038;-72
2021/12/03 09:18:37;;;;;;;14.20;3.55;;;;;;;-0.15;83.87;96044.72;5001095;28;20184;-73
2021/12/03 09:21:09;;;;;;;14.00;4.90;;;;;;;-0.26;83.97;96042.59;5013909;28;20045;-73
2021/12/03 09:23:55;;;;;;;7.88;2.75;;;;;;;-0.13;83.64;96047.97;5002096;28;20461;-72
2021/12/03 09:26:22;;;;;;;8.15;3.40;;;;;;;-0.19;83.57;96048.72;5000015;28;20109;-72
2021/12/03 09:28:54;;;;;;;8.30;3.35;;;;;;;-0.25;83.09;96047.66;4998666;28;20366;-71
2021/12/03 09:31:19;;;;;;;;;;;;;;;-0.23;84.00;96044.84;5002610;28;20042;-75
2021/12/03 09:33:47;;;;;;;8.02;2.75;;;;;;;-0.08;82.20;96045.56;5003364;28;19936;-72
2021/12/03 09:36:13;;;;;;;11.10;3.92;;;;;;;0.20;81.51;96032.38;4998973;28;20301;-71
2021/12/03 09:38:39;;;;;;;12.98;4.78;;;;;;;0.56;80.35;96029.53;4998276;28;20046;-73
2021/12/03 09:41:14;;;;;;;17.05;6.03;;;;;;;1.62;75.50;96032.41;4997074;28;20077;-72
2021/12/03 09:43:46;;;;;;;8.52;3.28;;;;;;;1.63;72.52;96047.22;5001104;28;20061;-72
2021/12/03 09:51:28;;;;;;;9.30;4.70;;;;;;;0.52;79.34;96037.00;5003552;28;20038;-70
2021/12/03 09:56:59;;;;;;;7.47;2.63;;;;;;;0.41;79.38;96024.41;4973451;28;20556;-74
2021/12/03 10:13:40;;;;;;;7.60;3.63;;;;;;;0.21;79.64;96020.84;4997834;28;20388;-70
2021/12/03 10:18:52;;;;;;;7.43;3.50;;;;;;;0.11;80.55;96015.13;4995290;28;20819;-72
2021/12/03 10:30:08;;;;;;;7.55;2.47;;;;;;;0.64;78.18;95995.13;4995024;28;20381;-72
2021/12/03 10:38:49;;;;;;;7.18;3.15;;;;;;;0.82;77.97;96002.47;4949421;28;20065;-73
2021/12/03 10:41:23;;;;;;;11.00;3.25;;;;;;;0.63;77.57;96001.41;4997575;28;20570;-71
2021/12/03 10:57:05;;;;;;;11.25;4.32;;;;;;;0.52;78.83;95994.06;5006451;28;20493;-70
2021/12/03 10:59:48;;;;;;;8.40;3.30;;;;;;;0.50;78.22;95977.66;5004846;28;20034;-73
2021/12/03 11:05:17;;;;;;;6.47;2.90;;;;;;;1.86;73.29;95971.09;4994559;28;20045;-70
2021/12/03 11:11:07;;;;;;;7.70;3.47;;;;;;;1.12;75.85;95979.22;4999255;28;20036;-71
2021/12/03 11:41:55;;;;;;;5.90;1.85;;;;;;;0.07;79.20;95941.03;4976237;28;20150;-74
2021/12/03 11:44:51;;;;;;;6.55;2.45;;;;;;;0.22;78.11;95943.53;4998517;28;20038;-71
2021/12/03 13:58:41;;;;;;;9.52;3.75;;;;;;;-0.45;83.38;95776.75;5001528;28;20029;-69
2021/12/03 14:37:18;;;;;;;7.07;2.55;;;;;;;-0.50;83.61;95747.59;4970518;28;20058;-69
2021/12/03 14:39:50;;;;;;;5.80;3.47;;;;;;;-0.55;83.22;95731.59;4963657;28;20038;-70
2021/12/03 14:45:14;;;;;;;5.18;2.08;;;;;;;-0.59;82.89;95727.75;4943703;28;20473;-70
2021/12/03 14:48:04;;;;;;;4.05;2.08;;;;;;;-0.56;83.24;95737.88;4982696;28;20042;-70
2021/12/03 14:55:35;;;;;;;4.70;2.50;;;;;;;-0.65;83.61;95699.63;4984815;28;20034;-74
2021/12/03 14:58:10;;;;;;;4.85;2.47;;;;;;;-0.60;83.61;95728.78;4983424;28;20038;-72
2021/12/03 15:03:29;;;;;;;4.82;2.45;;;;;;;-0.71;84.34;95737.19;4986051;28;20432;-72
2021/12/03 15:08:34;;;;;;;4.15;2.22;;;;;;;-0.70;83.76;95738.81;4986882;28;20043;-70
2021/12/03 15:24:39;;;;;;;5.40;2.20;;;;;;;-0.64;84.81;95730.16;4983316;28;20489;-70
2021/12/03 15:35:23;;;;;;;7.63;2.95;;;;;;;-0.67;85.05;95706.91;4985219;28;20035;-71
2021/12/03 16:04:35;;;;;;;4.95;1.77;;;;;;;-0.69;84.09;95703.69;4982009;28;20046;-70
2021/12/03 16:12:20;;;;;;;55.70;14.98;;;;;;;-0.71;84.93;95680.19;4986530;28;20073;-72
2021/12/03 16:46:58;;;;;;;41.75;11.00;;;;;;;-0.85;87.95;95660.97;4984594;28;20473;-71
2021/12/03 16:52:10;;;;;;;15.88;6.13;;;;;;;-0.88;88.41;95648.22;4986585;28;20493;-71
2021/12/03 16:54:44;;;;;;;9.88;4.13;;;;;;;-0.88;89.68;95635.06;4986071;28;20384;-72
2021/12/03 16:57:11;;;;;;;15.57;4.40;;;;;;;-0.95;89.61;95646.56;4986402;28;20046;-72
2021/12/03 16:59:39;;;;;;;63.67;20.38;;;;;;;-0.94;90.42;95641.13;4984887;28;20070;-70
2021/12/03 17:02:08;;;;;;;57.45;16.27;;;;;;;-1.05;91.02;95625.94;4986455;28;20181;-71
2021/12/03 17:04:51;;;;;;;28.02;8.18;;;;;;;-1.11;92.04;95629.34;4987821;28;20108;-72
2021/12/03 17:12:51;;;;;;;7.45;3.13;;;;;;;-1.27;97.71;95624.41;4985928;28;20639;-74
2021/12/03 17:47:33;;;;;;;3.90;2.08;;;;;;;-1.29;94.80;95592.31;4984963;28;20480;-72
2021/12/03 17:58:21;;;;;;;8.98;4.85;;;;;;;-1.25;94.43;95589.09;4980725;28;20134;-72
2021/12/03 18:01:01;;;;;;;8.77;3.65;;;;;;;-1.26;94.80;95587.47;4982120;28;20440;-71
2021/12/03 18:16:50;;;;;;;8.23;3.17;;;;;;;-1.35;95.66;95562.41;4984749;28;20081;-72
2021/12/03 18:56:49;;;;;;;12.98;5.68;;;;;;;-1.37;96.34;95503.25;4985150;28;20038;-72
2021/12/03 18:59:16;;;;;;;6.20;3.10;;;;;;;-1.35;96.14;95493.34;4984067;28;20043;-71
2021/12/03 19:01:42;;;;;;;4.80;2.70;;;;;;;-1.39;95.11;95494.75;4984509;28;20085;-70
2021/12/03 19:04:17;;;;;;;10.90;4.75;;;;;;;-1.38;95.32;95493.75;4984266;28;20050;-76